ADDS METAR Data INFO
IDs: Format: Raw Decoded Include TAF

Data at: 0428 UTC 21 Nov 2017

KEVW 210353Z AUTO 23015KT 10SM BKN026 04/M01 A3013 RMK AO2 SLP190 T00391006
KEVW 210253Z AUTO 20012KT 10SM OVC027 03/M01 A3014 RMK AO2 SLP198 T00281011 51011
KEVW 210153Z AUTO 24009KT 10SM BKN028 03/M02 A3013 RMK AO2 SLP205 T00281017
KEVW 210053Z AUTO 21009KT 10SM OVC036 03/M03 A3011 RMK AO2 SLP192 T00331033
KEVW 202353Z AUTO 22017KT 10SM OVC031 03/M03 A3010 RMK AO2 SLP184 T00281033 10044 20022 53002
KEVW 202253Z AUTO 24018KT 10SM SCT034 03/M03 A3006 RMK AO2 SLP173 T00281033
KEVW 202153Z AUTO 24013G21KT 10SM SCT085 03/M04 A3007 RMK AO2 SLP179 T00331039
KEVW 202053Z AUTO 25006KT 10SM FEW065 OVC085 04/M04 A3009 RMK AO2 SLP186 T00441044 55002
KEVW 201953Z AUTO 26009KT 10SM SCT070 04/M05 A3008 RMK AO2 SLP182 T00441050
KEVW 201853Z AUTO 25007KT 10SM BKN110 04/M05 A3009 RMK AO2 SLP186 T00391050
KEVW 201753Z AUTO 24010KT 10SM SCT100 BKN120 03/M05 A3010 RMK AO2 SLP193 T00281050 10028 21033 53010
KEVW 201653Z AUTO 24010KT 10SM FEW090 SCT110 01/M07 A3008 RMK AO2 SLP197 T00111067
KEVW 201553Z AUTO 23008KT 10SM OVC085 01/M07 A3007 RMK AO2 SLP190 T00061067
KEVW 201453Z AUTO 25009KT 10SM OVC095 M01/M08 A3006 RMK AO2 SLP193 T10111078 53001
KEVW 201353Z AUTO 24011KT 10SM SCT110 M03/M09 A3006 RMK AO2 SLP192 T10281094
KEVW 201253Z AUTO 24010KT 10SM CLR M03/M09 A3005 RMK AO2 SLP188 T10281094
KEVW 201153Z AUTO 24012KT 10SM BKN110 M01/M08 A3006 RMK AO2 SLP185 T10111083 11006 21050 51002
KEVW 201053Z AUTO 24013KT 10SM BKN110 M02/M08 A3005 RMK AO2 SLP184 T10171083
KEVW 200953Z AUTO 23012KT 10SM SCT110 M03/M09 A3005 RMK AO2 SLP187 T10281089
KEVW 200853Z AUTO 22012KT 10SM CLR M04/M10 A3005 RMK AO2 SLP189 T10391100 58007
KEVW 200753Z AUTO 22010KT 10SM CLR M04/M09 A3006 RMK AO2 SLP198 T10391094
KEVW 200653Z AUTO 22009KT 10SM CLR M03/M09 A3007 RMK AO2 SLP205 T10331089 400001111
KEVW 200553Z AUTO 22007KT 10SM CLR M03/M08 A3008 RMK AO2 SLP215 T10331078 11011 21044 58002
KEVW 200453Z AUTO 23010KT 10SM CLR M04/M08 A3008 RMK AO2 SLP218 T10441083
KEVW 200353Z AUTO 22007KT 10SM CLR M03/M08 A3009 RMK AO2 SLP218 T10331083
KEVW 200253Z AUTO 23008KT 10SM CLR M03/M08 A3008 RMK AO2 SLP218 T10331083 58007
KEVW 200153Z AUTO 20006KT 10SM CLR M02/M07 A3011 RMK AO2 SLP224 T10171072
KEVW 200053Z AUTO 23005KT 10SM CLR M02/M07 A3012 RMK AO2 SLP227 T10221072
KEVW 192353Z AUTO 23008KT 10SM CLR M02/M06 A3011 RMK AO2 SLP224 T10171061 10000 21061 56008
KEVW 192253Z AUTO 24008KT 10SM CLR M01/M05 A3011 RMK AO2 SLP221 T10061050
KEVW 192153Z AUTO 21006KT 10SM CLR M01/M05 A3012 RMK AO2 SLP223 T10061050
KEVW 192053Z AUTO 19006KT 10SM CLR M01/M06 A3014 RMK AO2 SLP231 T10061056 56024
KEVW 191953Z AUTO 21006KT 10SM CLR M02/M07 A3017 RMK AO2 SLP254 T10221067
KEVW 191853Z AUTO 21007KT 10SM CLR M04/M08 A3020 RMK AO2 SLP265 T10441078
KEVW 191753Z AUTO 00000KT 10SM CLR M07/M08 A3023 RMK AO2 SLP283 T10671083 11056 21089 50002
KEVW 191653Z AUTO 20003KT 10SM CLR M06/M09 A3023 RMK AO2 SLP278 T10561094